Time;durP1;ratioP1;P1;durP2;ratioP2;P2;SDS_P1;SDS_P2;PMS_P1;PMS_P2;Temp;Humidity;BMP_temperature;BMP_pressure;BME280_temperature;BME280_humidity;BME280_pressure;Samples;Min_cycle;Max_cycle;Signal;HPM_P1;HPM_P2
2024/01/10 00:00:18;;;;;;;48.83;22.25;;;;;;;-1.40;62.29;101935.56;5054220;28;20434;-44
2024/01/10 00:02:46;;;;;;;45.78;22.67;;;;;;;-1.59;63.64;101937.00;5054403;28;20045;-45
2024/01/10 00:05:16;;;;;;;44.80;22.55;;;;;;;-1.58;64.78;101937.03;5054415;28;20045;-45
2024/01/10 00:07:48;;;;;;;45.53;22.17;;;;;;;-1.55;64.19;101933.56;5054395;28;20470;-45
2024/01/10 00:10:16;;;;;;;43.58;21.35;;;;;;;-1.87;64.25;101933.94;5054792;28;20135;-45
2024/01/10 00:12:45;;;;;;;49.88;22.30;;;;;;;-1.65;63.95;101935.16;5054073;28;20500;-45
2024/01/10 00:15:14;;;;;;;49.40;23.70;;;;;;;-1.61;64.44;101947.47;5054006;28;20141;-45
2024/01/10 00:17:48;;;;;;;43.67;21.90;;;;;;;-1.49;64.71;101946.78;5053999;28;20056;-46
2024/01/10 00:20:21;;;;;;;48.47;22.25;;;;;;;-1.48;64.05;101945.91;5053825;28;20144;-45
2024/01/10 00:22:49;;;;;;;48.30;21.45;;;;;;;-1.70;65.52;101941.19;5054003;28;20139;-45
2024/01/10 00:25:18;;;;;;;41.78;20.02;;;;;;;-1.56;65.35;101942.28;5052770;28;20045;-46
2024/01/10 00:27:46;;;;;;;41.40;21.23;;;;;;;-1.46;64.97;101936.34;5053724;28;20524;-45
2024/01/10 00:30:15;;;;;;;45.90;21.98;;;;;;;-1.36;64.51;101940.88;5053804;28;20055;-44
2024/01/10 00:32:43;;;;;;;40.33;20.33;;;;;;;-1.29;64.68;101941.84;5053695;28;20512;-44
2024/01/10 00:35:12;;;;;;;37.75;18.70;;;;;;;-1.24;64.46;101942.81;5053409;28;20049;-44
2024/01/10 00:37:44;;;;;;;42.63;19.92;;;;;;;-1.22;64.01;101941.97;5053209;28;20470;-44
2024/01/10 00:40:13;;;;;;;39.58;20.30;;;;;;;-1.28;64.61;101941.88;5053748;28;20049;-45
2024/01/10 00:42:41;;;;;;;44.10;21.75;;;;;;;-1.38;64.60;101941.72;5053475;28;20053;-45
2024/01/10 00:45:10;;;;;;;41.55;20.45;;;;;;;-1.33;65.80;101946.16;5053527;28;20056;-44
2024/01/10 00:47:38;;;;;;;44.42;23.05;;;;;;;-1.30;65.37;101948.81;5053385;28;20041;-45
2024/01/10 00:50:07;;;;;;;47.10;22.27;;;;;;;-1.31;65.69;101939.22;5053581;28;20095;-45
2024/01/10 00:52:36;;;;;;;41.20;20.30;;;;;;;-1.32;65.69;101942.69;5053351;28;20090;-44
2024/01/10 00:55:10;;;;;;;41.63;20.25;;;;;;;-1.26;66.03;101940.13;5053240;28;20057;-45
2024/01/10 00:57:39;;;;;;;41.22;19.63;;;;;;;-1.27;65.78;101946.25;5053138;28;20091;-45
2024/01/10 01:00:10;;;;;;;40.53;19.50;;;;;;;-1.30;65.97;101943.59;5053124;28;20041;-45
2024/01/10 01:02:40;;;;;;;42.75;19.55;;;;;;;-1.59;66.83;101950.09;5053422;28;20052;-45
2024/01/10 01:05:09;;;;;;;36.72;19.13;;;;;;;-1.57;67.73;101953.63;5053414;28;20045;-45
2024/01/10 01:07:41;;;;;;;43.70;19.02;;;;;;;-1.59;66.71;101950.09;5053289;28;20045;-46
2024/01/10 01:10:12;;;;;;;39.45;18.80;;;;;;;-1.47;66.87;101956.41;5052284;28;20049;-45
2024/01/10 01:12:40;;;;;;;35.67;18.35;;;;;;;-1.57;66.43;101949.25;5053019;28;20049;-45
2024/01/10 01:15:08;;;;;;;42.65;19.95;;;;;;;-1.56;66.56;101955.38;5053118;28;20053;-46
2024/01/10 01:17:40;;;;;;;39.22;18.92;;;;;;;-1.51;66.78;101952.00;5052874;28;20082;-44
2024/01/10 01:20:09;;;;;;;43.22;19.45;;;;;;;-1.54;67.23;101954.56;5052727;28;20485;-44
2024/01/10 01:22:41;;;;;;;36.50;18.77;;;;;;;-1.54;67.37;101953.69;5053085;28;20053;-44
2024/01/10 01:25:11;;;;;;;40.10;19.88;;;;;;;-1.69;68.84;101959.53;5052706;28;20041;-44
2024/01/10 01:27:40;;;;;;;40.67;19.83;;;;;;;-1.53;68.55;101952.81;5052857;28;20099;-46
2024/01/10 01:30:11;;;;;;;41.95;19.02;;;;;;;-1.76;69.46;101949.81;5052749;28;20075;-45
2024/01/10 01:32:40;;;;;;;37.47;19.67;;;;;;;-1.85;70.80;101952.25;5051344;28;20053;-44
2024/01/10 01:35:08;;;;;;;41.20;20.13;;;;;;;-1.83;71.02;101950.56;5052539;28;20049;-47
2024/01/10 01:37:37;;;;;;;44.17;20.02;;;;;;;-1.66;70.43;101943.00;5052299;28;20103;-43
2024/01/10 01:40:07;;;;;;;43.38;20.48;;;;;;;-1.64;70.32;101950.03;5052280;28;20053;-44
2024/01/10 01:42:40;;;;;;;39.60;19.45;;;;;;;-1.60;70.48;101948.34;5052375;28;20049;-44
2024/01/10 01:45:11;;;;;;;40.25;20.20;;;;;;;-1.60;70.36;101954.44;5052388;28;20491;-44
2024/01/10 01:47:40;;;;;;;40.25;20.30;;;;;;;-1.63;70.11;101943.94;5034687;28;20049;-44
2024/01/10 01:50:09;;;;;;;39.17;19.55;;;;;;;-1.69;70.45;101948.19;5052225;28;20049;-45
2024/01/10 01:52:39;;;;;;;37.60;19.58;;;;;;;-1.74;70.93;101949.00;5052449;28;20130;-46
2024/01/10 01:55:11;;;;;;;39.33;19.30;;;;;;;-1.82;71.64;101945.38;5050806;28;20045;-45
2024/01/10 01:57:41;;;;;;;39.50;18.52;;;;;;;-1.85;72.90;101944.41;5052653;28;20051;-45
2024/01/10 02:00:11;;;;;;;41.65;20.45;;;;;;;-1.87;72.19;101944.41;5052527;28;20140;-43
2024/01/10 02:02:40;;;;;;;39.88;19.42;;;;;;;-1.97;72.42;101944.19;5052031;28;20106;-43
2024/01/10 02:05:13;;;;;;;39.95;19.30;;;;;;;-1.78;72.73;101944.56;5052215;28;20048;-44
2024/01/10 02:07:42;;;;;;;40.42;18.73;;;;;;;-1.71;72.15;101944.66;5052332;28;20110;-44
2024/01/10 02:10:10;;;;;;;38.05;19.30;;;;;;;-2.12;72.58;101942.22;5051813;28;20556;-46
2024/01/10 02:12:42;;;;;;;39.95;19.02;;;;;;;-2.05;72.36;101936.22;5051929;28;20136;-45
2024/01/10 02:15:11;;;;;;;35.13;17.30;;;;;;;-1.89;71.61;101937.38;5051739;28;20136;-44
2024/01/10 02:17:39;;;;;;;41.08;19.38;;;;;;;-2.15;71.01;101932.56;5051491;28;20643;-44
2024/01/10 02:20:11;;;;;;;35.50;17.92;;;;;;;-2.10;71.46;101935.28;5051320;28;20102;-44
2024/01/10 02:22:40;;;;;;;37.92;18.85;;;;;;;-2.09;71.41;101929.19;5051740;28;20048;-43
2024/01/10 02:25:10;;;;;;;38.38;18.20;;;;;;;-1.90;70.10;101936.50;5051709;28;20059;-45
2024/01/10 02:27:40;;;;;;;38.88;18.42;;;;;;;-1.93;70.11;101933.84;5051509;28;20521;-44
2024/01/10 02:30:10;;;;;;;34.42;18.67;;;;;;;-1.96;70.58;101933.75;5051486;28;20047;-47
2024/01/10 02:32:39;;;;;;;40.58;19.55;;;;;;;-1.92;70.76;101926.88;5051513;28;20055;-44
2024/01/10 02:35:09;;;;;;;40.38;19.55;;;;;;;-1.82;70.47;101932.28;5051699;28;20048;-43
2024/01/10 02:37:39;;;;;;;37.35;18.77;;;;;;;-1.92;71.36;101934.72;5051566;28;20052;-44
2024/01/10 02:40:11;;;;;;;36.42;19.15;;;;;;;-2.22;71.78;101929.78;5051056;28;20494;-46
2024/01/10 02:42:43;;;;;;;37.78;18.13;;;;;;;-2.06;71.26;101921.38;5051298;28;20413;-45
2024/01/10 02:45:17;;;;;;;38.85;18.95;;;;;;;-2.15;72.00;101923.81;5051274;28;20087;-45
2024/01/10 02:47:47;;;;;;;39.38;19.13;;;;;;;-2.18;72.21;101926.41;5051267;28;20497;-44
2024/01/10 02:50:16;;;;;;;41.20;19.65;;;;;;;-2.19;73.14;101932.47;5051141;28;20485;-45
2024/01/10 02:52:44;;;;;;;42.60;19.55;;;;;;;-2.55;76.11;101927.41;5051326;28;20069;-44
2024/01/10 02:55:15;;;;;;;37.05;19.30;;;;;;;-2.99;78.77;101932.56;5051230;28;20458;-44
2024/01/10 02:57:44;;;;;;;39.17;18.58;;;;;;;-2.70;78.50;101930.59;5051253;28;20053;-44
2024/01/10 03:00:14;;;;;;;41.60;19.52;;;;;;;-2.49;77.80;101933.66;5051225;28;20083;-45
2024/01/10 03:02:42;;;;;;;37.20;17.70;;;;;;;-2.47;76.56;101934.56;5051372;28;20472;-45
2024/01/10 03:05:10;;;;;;;41.30;18.45;;;;;;;-2.34;74.86;101936.56;5050918;28;20049;-44
2024/01/10 03:07:39;;;;;;;34.40;17.50;;;;;;;-2.22;74.65;101935.94;5051103;28;20045;-45
2024/01/10 03:10:08;;;;;;;39.05;17.95;;;;;;;-2.50;73.62;101934.50;5051212;28;20099;-47
2024/01/10 03:12:37;;;;;;;38.08;18.00;;;;;;;-2.33;73.49;101937.44;5051358;28;20069;-45
2024/01/10 03:15:07;;;;;;;38.05;17.65;;;;;;;-2.52;72.20;101936.19;5051100;28;20118;-45
2024/01/10 03:17:38;;;;;;;37.97;17.75;;;;;;;-2.49;73.49;101941.50;5051288;28;20113;-45
2024/01/10 03:20:10;;;;;;;35.75;17.83;;;;;;;-2.48;71.33;101932.81;5051326;28;20044;-45
2024/01/10 03:22:41;;;;;;;31.17;15.48;;;;;;;-2.72;70.87;101932.28;5051419;28;20049;-44
2024/01/10 03:25:09;;;;;;;38.15;16.77;;;;;;;-2.65;72.81;101927.22;5051121;28;20135;-45
2024/01/10 03:27:40;;;;;;;36.25;17.67;;;;;;;-2.58;71.84;101925.63;5051064;28;20413;-45
2024/01/10 03:30:10;;;;;;;33.13;16.25;;;;;;;-2.50;70.43;101933.63;5051075;28;20447;-44
2024/01/10 03:32:38;;;;;;;32.58;16.67;;;;;;;-2.61;70.46;101926.47;5052231;28;20131;-45
2024/01/10 03:35:08;;;;;;;33.40;17.20;;;;;;;-2.58;70.66;101927.38;5054908;28;20060;-44
2024/01/10 03:37:37;;;;;;;35.72;17.95;;;;;;;-2.42;70.37;101925.06;5054743;28;20049;-46
2024/01/10 03:40:09;;;;;;;43.15;21.35;;;;;;;-2.33;70.25;101926.97;5054856;28;20049;-44
2024/01/10 03:42:38;;;;;;;53.80;29.40;;;;;;;-2.24;69.84;101927.16;5054632;28;20049;-45
2024/01/10 03:45:07;;;;;;;75.03;40.30;;;;;;;-2.26;70.22;101930.59;5054413;28;20053;-45
2024/01/10 03:47:36;;;;;;;74.03;39.40;;;;;;;-2.26;70.02;101922.75;5053219;28;20138;-45
2024/01/10 03:50:06;;;;;;;66.80;33.30;;;;;;;-2.43;71.10;101919.81;5053498;28;20063;-47
2024/01/10 03:52:35;;;;;;;62.17;31.00;;;;;;;-2.39;72.00;101927.75;5054741;28;20041;-45
2024/01/10 03:55:04;;;;;;;47.13;25.17;;;;;;;-2.58;73.72;101923.03;5054461;28;20052;-45
2024/01/10 03:57:32;;;;;;;46.58;24.83;;;;;;;-2.60;74.67;101928.22;5054529;28;20433;-44
2024/01/10 04:00:00;;;;;;;39.78;21.42;;;;;;;-2.49;75.01;101923.22;5054266;28;20041;-46
2024/01/10 04:02:33;;;;;;;36.83;19.38;;;;;;;-2.39;74.60;101927.75;5054481;28;20478;-44
2024/01/10 04:05:07;;;;;;;35.40;17.45;;;;;;;-2.36;74.17;101927.81;5054261;28;20095;-43
2024/01/10 04:07:41;;;;;;;32.78;15.50;;;;;;;-2.58;74.43;101928.25;5054682;28;20049;-45
2024/01/10 04:10:10;;;;;;;32.20;15.93;;;;;;;-2.50;74.93;101926.69;5054136;28;20114;-45
2024/01/10 04:12:38;;;;;;;28.83;15.70;;;;;;;-2.41;74.86;101933.81;5052824;28;20052;-51
2024/01/10 04:15:07;;;;;;;34.47;16.02;;;;;;;-2.37;74.62;101926.03;5054453;28;20057;-45
2024/01/10 04:17:40;;;;;;;28.45;14.82;;;;;;;-2.37;74.64;101926.03;5053855;28;20144;-45
2024/01/10 04:20:11;;;;;;;27.05;13.93;;;;;;;-2.43;73.82;101931.16;5053978;28;20079;-43
2024/01/10 04:22:39;;;;;;;27.63;14.75;;;;;;;-2.44;74.28;101932.00;5053898;28;20045;-46
2024/01/10 04:25:09;;;;;;;32.00;14.68;;;;;;;-2.56;75.16;101930.88;5053725;28;20060;-44
2024/01/10 04:27:38;;;;;;;28.45;13.90;;;;;;;-2.84;77.39;101937.25;5054241;28;20048;-44
2024/01/10 04:30:08;;;;;;;29.48;14.73;;;;;;;-2.80;76.93;101931.25;5053745;28;20049;-46
2024/01/10 04:32:38;;;;;;;28.20;14.85;;;;;;;-2.74;76.86;101926.16;5053901;28;20036;-44
2024/01/10 04:35:07;;;;;;;29.65;14.57;;;;;;;-2.82;77.34;101930.34;5053526;28;20048;-43
2024/01/10 04:37:35;;;;;;;33.05;15.48;;;;;;;-2.86;79.63;101933.75;5053444;28;20435;-45
2024/01/10 04:40:05;;;;;;;28.92;15.45;;;;;;;-2.90;79.70;101940.63;5053725;28;20037;-45
2024/01/10 04:42:36;;;;;;;31.17;14.77;;;;;;;-2.75;79.66;101943.56;5053469;28;20060;-46
2024/01/10 04:45:09;;;;;;;31.08;15.52;;;;;;;-2.74;78.19;101949.66;5050757;28;20087;-44
2024/01/10 04:47:38;;;;;;;31.40;15.75;;;;;;;-2.66;77.73;101953.31;5053523;28;20052;-46
2024/01/10 04:50:08;;;;;;;30.00;15.30;;;;;;;-2.72;78.96;101947.97;5053430;28;20080;-44
2024/01/10 04:52:40;;;;;;;34.88;17.33;;;;;;;-2.85;81.49;101953.78;5053623;28;20052;-48
2024/01/10 04:55:10;;;;;;;36.28;17.80;;;;;;;-2.95;82.71;101957.94;5053468;28;20049;-43
2024/01/10 04:57:39;;;;;;;39.67;19.20;;;;;;;-2.95;83.45;101956.19;5053375;28;20123;-44
2024/01/10 05:00:08;;;;;;;41.70;18.15;;;;;;;-2.87;83.25;101948.53;5053203;28;20073;-42
2024/01/10 05:02:38;;;;;;;38.40;17.65;;;;;;;-2.72;82.47;101953.19;5053087;28;20045;-43
2024/01/10 05:05:07;;;;;;;39.83;19.42;;;;;;;-2.66;81.22;101955.94;5053286;28;20080;-44
2024/01/10 05:07:36;;;;;;;38.08;18.05;;;;;;;-2.85;81.94;101953.78;5053186;28;20065;-45
2024/01/10 05:10:06;;;;;;;40.05;18.58;;;;;;;-2.99;81.98;101959.59;5053082;28;20132;-44
2024/01/10 05:12:34;;;;;;;39.95;18.00;;;;;;;-3.42;84.33;101962.06;5053075;28;20099;-44
2024/01/10 05:15:03;;;;;;;39.05;18.33;;;;;;;-3.33;85.33;101957.94;5052805;28;20128;-45
2024/01/10 05:17:32;;;;;;;39.05;18.00;;;;;;;-3.33;87.42;101957.06;5052441;28;20456;-45
2024/01/10 05:20:02;;;;;;;31.15;17.58;;;;;;;-3.32;90.06;101958.81;5052826;28;20077;-45
2024/01/10 05:22:33;;;;;;;36.13;17.83;;;;;;;-3.11;87.47;101959.31;5066948;28;20044;-43
2024/01/10 05:25:04;;;;;;;33.88;17.40;;;;;;;-3.08;83.16;101958.50;5072552;28;20051;-44
2024/01/10 05:27:35;;;;;;;37.67;17.60;;;;;;;-3.01;81.90;101960.38;5072502;28;20045;-44
2024/01/10 05:30:08;;;;;;;32.35;16.20;;;;;;;-3.35;82.80;101956.13;5072556;28;20037;-43
2024/01/10 05:32:36;;;;;;;32.88;16.13;;;;;;;-3.20;81.35;101964.31;5072437;28;20481;-44
2024/01/10 05:35:10;;;;;;;38.05;16.77;;;;;;;-3.61;82.72;101966.81;5072428;28;20059;-46
2024/01/10 05:37:39;;;;;;;31.30;15.52;;;;;;;-3.48;83.83;101971.47;5072207;28;20202;-45
2024/01/10 05:40:09;;;;;;;30.50;16.85;;;;;;;-3.60;84.48;101965.97;5072270;28;20048;-45
2024/01/10 05:42:37;;;;;;;38.75;16.63;;;;;;;-3.50;85.27;101967.97;5070996;28;20514;-46
2024/01/10 05:45:09;;;;;;;31.88;16.63;;;;;;;-3.13;83.33;101955.78;5071993;28;20055;-44
2024/01/10 05:47:37;;;;;;;37.80;17.38;;;;;;;-3.00;81.38;101955.19;5072155;28;20530;-45
2024/01/10 05:50:07;;;;;;;33.00;18.00;;;;;;;-2.99;82.14;101948.25;5072240;28;20419;-45
2024/01/10 05:52:37;;;;;;;35.42;17.85;;;;;;;-2.86;81.23;101954.63;5072278;28;20052;-44
2024/01/10 05:55:08;;;;;;;34.47;16.75;;;;;;;-2.82;80.80;101951.22;5072084;28;20047;-44
2024/01/10 05:57:37;;;;;;;39.35;18.42;;;;;;;-3.00;81.46;101946.50;5072198;28;20121;-46
2024/01/10 06:00:09;;;;;;;34.35;18.38;;;;;;;-2.90;80.18;101944.09;5072136;28;20044;-44
2024/01/10 06:02:38;;;;;;;34.53;17.08;;;;;;;-3.15;81.05;101949.66;5071828;28;20585;-44
2024/01/10 06:05:08;;;;;;;36.83;18.20;;;;;;;-3.52;82.61;101955.72;5071974;28;20051;-44
2024/01/10 06:07:42;;;;;;;33.00;16.27;;;;;;;-3.54;83.13;101950.47;5071848;28;20109;-43
2024/01/10 06:10:11;;;;;;;30.40;16.02;;;;;;;-3.39;81.98;101956.91;5071618;28;20062;-44
2024/01/10 06:12:39;;;;;;;30.80;15.18;;;;;;;-3.26;81.18;101965.06;5071574;28;20083;-44
2024/01/10 06:15:08;;;;;;;29.63;14.27;;;;;;;-3.28;80.13;101965.84;5071621;28;20110;-44
2024/01/10 06:17:37;;;;;;;29.30;15.25;;;;;;;-3.13;79.58;101968.84;5071480;28;20076;-47
2024/01/10 06:20:13;;;;;;;30.45;14.25;;;;;;;-3.07;78.08;101969.00;5071372;28;20516;-44
2024/01/10 06:22:43;;;;;;;27.92;14.32;;;;;;;-3.11;78.86;101959.31;5069657;28;20103;-44
2024/01/10 06:25:11;;;;;;;32.13;14.40;;;;;;;-3.13;79.42;101955.78;5071009;28;20041;-42
2024/01/10 06:27:41;;;;;;;28.98;14.85;;;;;;;-3.07;79.04;101963.75;5071419;28;20095;-46
2024/01/10 06:30:11;;;;;;;29.20;15.70;;;;;;;-3.17;78.53;101964.41;5071548;28;20041;-46
2024/01/10 06:32:40;;;;;;;31.48;15.48;;;;;;;-3.31;79.06;101963.19;5071252;28;20075;-45
2024/01/10 06:35:09;;;;;;;32.38;14.90;;;;;;;-3.32;79.83;101964.91;5071407;28;20071;-45
2024/01/10 06:37:38;;;;;;;27.13;14.85;;;;;;;-3.06;78.97;101968.13;5071088;28;20044;-45
2024/01/10 06:40:10;;;;;;;32.53;15.60;;;;;;;-2.85;77.67;101970.34;5071275;28;20051;-44
2024/01/10 06:42:39;;;;;;;34.17;17.15;;;;;;;-2.80;76.58;101973.91;5071252;28;20124;-44
2024/01/10 06:45:08;;;;;;;32.63;16.35;;;;;;;-2.80;76.30;101981.75;5071345;28;20048;-44
2024/01/10 06:47:38;;;;;;;27.88;15.00;;;;;;;-2.72;74.69;101981.91;5071374;28;20405;-46
2024/01/10 06:50:08;;;;;;;32.00;14.82;;;;;;;-2.70;74.02;101990.66;5071210;28;20133;-44
2024/01/10 06:52:37;;;;;;;26.98;13.95;;;;;;;-2.61;73.91;101988.25;5072324;28;20431;-46
2024/01/10 06:55:09;;;;;;;25.67;13.32;;;;;;;-2.63;73.55;101989.97;5078115;28;20044;-45
2024/01/10 06:57:38;;;;;;;28.25;14.55;;;;;;;-2.55;73.71;101991.00;5078299;28;20163;-44
2024/01/10 07:00:10;;;;;;;30.42;14.75;;;;;;;-2.54;74.35;102003.22;5082562;28;20048;-48
2024/01/10 07:02:39;;;;;;;28.65;14.32;;;;;;;-2.50;74.71;102002.44;5081091;28;20044;-48
2024/01/10 07:05:09;;;;;;;30.58;14.07;;;;;;;-2.45;75.03;102000.81;5079100;28;20052;-45
2024/01/10 07:07:37;;;;;;;29.58;13.50;;;;;;;-2.44;75.23;101997.34;5073786;28;20049;-45
2024/01/10 07:10:07;;;;;;;27.80;13.70;;;;;;;-2.46;76.48;101992.94;5076883;28;20055;-45
2024/01/10 07:12:43;;;;;;;25.17;13.00;;;;;;;-2.37;75.88;101998.34;5076228;28;20051;-44
2024/01/10 07:15:13;;;;;;;28.13;12.73;;;;;;;-2.31;75.52;101996.75;5075149;28;20442;-45
2024/01/10 07:17:42;;;;;;;27.75;14.40;;;;;;;-2.23;74.55;101993.38;5075017;28;20140;-44
2024/01/10 07:20:14;;;;;;;29.37;14.07;;;;;;;-2.21;74.89;101986.47;5075029;28;20044;-43
2024/01/10 07:22:43;;;;;;;27.67;13.60;;;;;;;-2.10;74.56;101990.19;5074819;28;20071;-45
2024/01/10 07:25:14;;;;;;;31.67;14.27;;;;;;;-2.14;74.02;101988.34;5073470;28;20078;-44
2024/01/10 07:27:45;;;;;;;29.85;14.02;;;;;;;-2.08;73.26;101991.97;5074760;28;20052;-43
2024/01/10 07:30:15;;;;;;;27.38;13.02;;;;;;;-1.96;72.54;101985.19;5074868;28;20102;-45
2024/01/10 07:32:44;;;;;;;24.90;13.02;;;;;;;-1.91;72.71;101988.78;5074761;28;20056;-44
2024/01/10 07:35:14;;;;;;;28.13;13.27;;;;;;;-1.81;72.02;101993.34;5074474;28;20481;-46
2024/01/10 07:37:44;;;;;;;26.02;13.30;;;;;;;-1.82;72.01;101991.56;5074401;28;20049;-45
2024/01/10 07:40:16;;;;;;;32.40;14.65;;;;;;;-1.75;71.25;101988.19;5074444;28;20054;-45
2024/01/10 07:42:45;;;;;;;30.50;13.25;;;;;;;-1.71;71.26;101999.63;5074500;28;20433;-46
2024/01/10 07:45:17;;;;;;;24.08;13.30;;;;;;;-1.68;72.03;102000.53;5074401;28;20040;-45
2024/01/10 07:47:46;;;;;;;28.83;12.85;;;;;;;-1.56;70.31;101997.25;5074122;28;20049;-44
2024/01/10 07:50:19;;;;;;;29.13;14.23;;;;;;;-1.53;69.51;102002.56;5074387;28;20572;-45
2024/01/10 07:52:48;;;;;;;27.98;12.80;;;;;;;-1.54;68.98;102006.03;5074317;28;20045;-45
2024/01/10 07:55:17;;;;;;;27.30;13.95;;;;;;;-1.57;68.42;102003.34;5074071;28;20040;-45
2024/01/10 07:57:45;;;;;;;29.55;14.45;;;;;;;-1.51;69.35;102004.34;5074185;28;20044;-45
2024/01/10 08:00:16;;;;;;;27.42;13.75;;;;;;;-1.58;70.13;102010.31;5073955;28;20044;-45
2024/01/10 08:02:44;;;;;;;28.50;15.60;;;;;;;-1.55;69.92;102009.47;5069701;28;20106;-44
2024/01/10 08:05:13;;;;;;;29.15;14.30;;;;;;;-1.49;69.74;102010.47;5054152;28;20136;-45
2024/01/10 08:07:41;;;;;;;29.85;14.80;;;;;;;-1.35;69.64;102007.19;5054209;28;20045;-43
2024/01/10 08:10:11;;;;;;;31.38;15.43;;;;;;;-1.62;69.65;102010.25;5053679;28;20041;-43
2024/01/10 08:12:41;;;;;;;25.88;14.07;;;;;;;-1.71;70.76;102007.47;5053857;28;20079;-43
2024/01/10 08:15:10;;;;;;;32.88;15.52;;;;;;;-1.78;71.29;102007.34;5053359;28;20420;-43
2024/01/10 08:17:40;;;;;;;33.78;16.10;;;;;;;-1.77;71.35;102009.09;5053401;28;20049;-43
2024/01/10 08:20:14;;;;;;;34.70;17.00;;;;;;;-1.74;70.65;102014.41;5053513;28;20053;-43
2024/01/10 08:22:44;;;;;;;32.75;16.38;;;;;;;-1.68;70.46;102015.34;5053761;28;20059;-43
2024/01/10 08:25:15;;;;;;;38.22;17.67;;;;;;;-1.59;70.08;102018.13;5053359;28;20124;-44
2024/01/10 08:27:46;;;;;;;32.25;17.00;;;;;;;-1.70;70.69;102022.31;5053749;28;20045;-44
2024/01/10 08:30:14;;;;;;;36.45;17.58;;;;;;;-1.65;70.56;102025.88;5053500;28;20481;-45
2024/01/10 08:32:49;;;;;;;36.58;18.02;;;;;;;-1.65;70.08;102024.13;5053688;28;20068;-43
2024/01/10 08:35:20;;;;;;;35.70;16.95;;;;;;;-1.58;70.23;102026.00;5053011;28;20059;-44
2024/01/10 08:37:53;;;;;;;35.92;18.08;;;;;;;-1.63;69.66;102029.41;5052952;28;20057;-43
2024/01/10 08:40:25;;;;;;;31.10;17.60;;;;;;;-1.49;69.84;102026.16;5053123;28;20559;-43
2024/01/10 08:42:54;;;;;;;34.30;18.77;;;;;;;-1.29;69.90;102028.25;5053088;28;20590;-44
2024/01/10 08:45:22;;;;;;;36.35;18.92;;;;;;;-1.45;69.45;102033.25;5052812;28;20274;-43
2024/01/10 08:47:53;;;;;;;35.63;18.40;;;;;;;-1.44;69.26;102028.88;5052812;28;20148;-45
2024/01/10 08:50:22;;;;;;;34.30;18.00;;;;;;;-1.55;68.95;102025.16;5052992;28;20490;-43
2024/01/10 08:52:50;;;;;;;37.28;17.83;;;;;;;-1.38;68.32;102028.97;5052892;28;20049;-43
2024/01/10 08:55:21;;;;;;;35.13;17.25;;;;;;;-1.20;67.25;102031.00;5069158;28;20079;-46
2024/01/10 08:57:49;;;;;;;36.30;18.52;;;;;;;-0.97;66.71;102028.75;5071602;28;20052;-43
2024/01/10 09:00:18;;;;;;;38.03;18.95;;;;;;;-1.02;65.80;102025.19;5072752;28;20137;-46
2024/01/10 09:02:46;;;;;;;34.03;17.40;;;;;;;-0.89;65.34;102024.50;5069110;28;20127;-42
2024/01/10 09:05:18;;;;;;;37.63;18.25;;;;;;;-0.77;64.34;102023.78;5061309;28;20045;-44
2024/01/10 09:07:46;;;;;;;35.60;17.70;;;;;;;-0.80;64.78;102024.66;5052339;28;20508;-44
2024/01/10 09:10:15;;;;;;;35.03;17.60;;;;;;;-0.73;63.49;102016.03;5052812;28;20048;-44
2024/01/10 09:12:45;;;;;;;41.83;18.08;;;;;;;-0.58;63.09;102010.09;5052734;28;20153;-43
2024/01/10 09:15:15;;;;;;;37.28;16.77;;;;;;;-0.77;61.99;102008.06;5052477;28;20057;-44
2024/01/10 09:17:43;;;;;;;34.00;17.67;;;;;;;-0.67;62.21;102010.88;5052188;28;20095;-44
2024/01/10 09:20:16;;;;;;;37.55;17.77;;;;;;;-0.68;61.73;102008.22;5052383;28;20049;-44
2024/01/10 09:22:50;;;;;;;31.77;16.10;;;;;;;-0.67;60.10;102005.63;5052433;28;20052;-44
2024/01/10 09:25:19;;;;;;;30.08;15.93;;;;;;;-0.54;58.43;101998.81;5052593;28;20170;-45
2024/01/10 09:27:47;;;;;;;37.38;16.75;;;;;;;-0.36;59.57;102008.66;5052227;28;20413;-43
2024/01/10 09:30:18;;;;;;;34.10;16.70;;;;;;;-0.31;57.24;102001.72;5051294;28;20041;-43
2024/01/10 09:32:47;;;;;;;28.58;15.93;;;;;;;-0.42;55.46;102001.56;5052363;28;20045;-43
2024/01/10 09:35:17;;;;;;;29.83;15.45;;;;;;;-0.33;56.89;102004.31;5050169;28;20065;-43
2024/01/10 09:37:49;;;;;;;32.40;15.43;;;;;;;-0.17;56.01;101994.03;5052150;28;20045;-45
2024/01/10 09:40:18;;;;;;;30.38;16.15;;;;;;;-0.08;55.76;101981.88;5051666;28;20080;-44
2024/01/10 09:42:54;;;;;;;29.17;15.23;;;;;;;0.07;55.38;101986.41;5051748;28;20227;-47
2024/01/10 09:45:23;;;;;;;;;;;;;;;0.05;54.54;101976.75;5050998;28;20477;-45
2024/01/10 09:47:56;;;;;;;30.60;14.20;;;;;;;0.04;54.17;101982.88;5051664;28;19921;-44
2024/01/10 09:50:26;;;;;;;30.55;13.73;;;;;;;0.15;54.59;101979.50;5051425;28;20052;-45
2024/01/10 09:53:03;;;;;;;28.73;14.40;;;;;;;0.34;54.09;101975.31;5051455;28;20466;-46
2024/01/10 09:55:37;;;;;;;26.88;13.55;;;;;;;0.45;53.79;101980.63;5051601;28;20059;-45
2024/01/10 09:58:08;;;;;;;33.13;14.53;;;;;;;0.56;53.22;101982.47;5052558;28;20049;-44
2024/01/10 10:00:40;;;;;;;30.08;13.77;;;;;;;0.37;51.19;101975.31;5051673;28;20157;-47
2024/01/10 10:03:11;;;;;;;23.80;13.32;;;;;;;0.45;52.16;101971.03;5051564;28;20048;-46
2024/01/10 10:05:41;;;;;;;23.25;12.35;;;;;;;0.45;49.54;101970.13;5051461;28;20137;-45
2024/01/10 10:08:14;;;;;;;29.65;14.25;;;;;;;0.54;49.36;101957.97;5051273;28;20414;-44
2024/01/10 10:10:44;;;;;;;29.87;13.73;;;;;;;0.62;49.51;101962.41;5051981;28;20071;-44
2024/01/10 10:13:25;;;;;;;28.25;13.55;;;;;;;0.66;49.23;101951.94;5051426;28;20049;-44
2024/01/10 10:16:00;;;;;;;28.73;13.45;;;;;;;0.84;50.38;101945.94;5051197;28;20044;-45
2024/01/10 10:18:31;;;;;;;30.23;14.52;;;;;;;0.91;49.83;101942.47;5051159;28;20060;-44
2024/01/10 10:21:12;;;;;;;28.05;13.75;;;;;;;0.63;49.10;101951.03;5051347;28;20045;-43
2024/01/10 10:23:59;;;;;;;33.08;14.88;;;;;;;0.82;48.93;101942.41;5051082;28;20048;-44
2024/01/10 10:26:29;;;;;;;26.98;13.70;;;;;;;0.83;48.34;101944.16;5051220;28;20143;-45
2024/01/10 10:28:58;;;;;;;28.30;13.75;;;;;;;0.97;48.99;101942.53;5071002;28;20059;-44
2024/01/10 10:31:27;;;;;;;28.63;13.40;;;;;;;0.87;48.20;101945.97;5070906;28;20493;-43
2024/01/10 10:33:55;;;;;;;30.50;13.75;;;;;;;0.77;48.21;101933.59;5071168;28;20045;-44
2024/01/10 10:36:24;;;;;;;35.45;13.85;;;;;;;0.95;49.12;101932.84;5070625;28;20512;-44
2024/01/10 10:38:53;;;;;;;36.22;14.80;;;;;;;1.03;48.25;101937.28;5070776;28;20067;-45
2024/01/10 10:41:24;;;;;;;34.33;14.32;;;;;;;1.20;47.96;101924.25;5070724;28;20044;-44
2024/01/10 10:43:55;;;;;;;25.10;12.68;;;;;;;1.31;46.42;101924.28;5071084;28;20080;-45
2024/01/10 10:46:31;;;;;;;32.33;13.00;;;;;;;1.44;47.59;101912.94;5071086;28;20148;-44
2024/01/10 10:49:05;;;;;;;28.23;12.80;;;;;;;1.50;47.73;101918.22;5070939;28;20059;-45
2024/01/10 10:51:34;;;;;;;29.52;13.48;;;;;;;1.59;47.31;101918.25;5071144;28;20358;-44
2024/01/10 10:54:07;;;;;;;32.30;13.35;;;;;;;1.65;47.08;101910.41;5071945;28;20064;-44
2024/01/10 10:56:38;;;;;;;26.13;12.68;;;;;;;1.77;46.77;101913.94;5071317;28;20127;-44
2024/01/10 10:59:08;;;;;;;26.92;11.75;;;;;;;1.61;45.65;101911.25;5071977;28;20538;-45
2024/01/10 11:01:37;;;;;;;24.42;11.80;;;;;;;1.46;44.42;101900.69;5071823;28;20044;-44
2024/01/10 11:04:06;;;;;;;25.08;12.13;;;;;;;1.38;43.73;101892.78;5072579;28;20045;-44
2024/01/10 11:06:35;;;;;;;23.45;12.23;;;;;;;1.53;44.42;101899.81;5071837;28;20106;-46
2024/01/10 11:09:10;;;;;;;28.08;11.98;;;;;;;1.70;44.54;101892.84;5071676;28;20080;-43
2024/01/10 11:11:54;;;;;;;19.95;11.55;;;;;;;1.76;44.93;101899.03;5071481;28;20414;-46
2024/01/10 11:14:34;;;;;;;25.27;11.75;;;;;;;1.83;44.11;101896.38;5071660;28;20127;-45
2024/01/10 11:17:27;;;;;;;23.92;11.05;;;;;;;1.95;44.18;101887.66;5071380;28;20060;-44
2024/01/10 11:20:23;;;;;;;29.80;11.07;;;;;;;1.91;43.63;101884.13;5072276;28;20442;-45
2024/01/10 11:23:15;;;;;;;22.73;9.90;;;;;;;1.91;42.27;101892.00;5071927;28;20405;-47
2024/01/10 11:25:45;;;;;;;22.60;10.07;;;;;;;1.90;42.29;101882.38;5070590;28;20382;-45